createdAt,value
2023-04-08T00:00:20.797Z,3.91
2023-04-08T00:02:48.624Z,3.91
2023-04-08T00:05:17.655Z,3.88
2023-04-08T00:07:45.483Z,3.87
2023-04-08T00:10:13.108Z,3.86
2023-04-08T00:12:40.873Z,3.88
2023-04-08T00:15:08.883Z,3.87
2023-04-08T00:17:36.766Z,3.88
2023-04-08T00:20:05.734Z,3.84
2023-04-08T00:22:34.708Z,3.83
2023-04-08T00:25:02.864Z,3.83
2023-04-08T00:27:30.466Z,3.79
2023-04-08T00:30:00.055Z,3.76
2023-04-08T00:32:28.347Z,3.74
2023-04-08T00:34:56.336Z,3.70
2023-04-08T00:37:24.966Z,3.69
2023-04-08T00:39:54.242Z,3.72
2023-04-08T00:42:22.154Z,3.70
2023-04-08T00:44:49.838Z,3.67
2023-04-08T00:47:17.644Z,3.68
2023-04-08T00:49:45.482Z,3.71
2023-04-08T00:52:13.119Z,3.69
2023-04-08T00:54:40.892Z,3.67
2023-04-08T00:57:09.881Z,3.64
2023-04-08T00:59:37.720Z,3.60
2023-04-08T01:02:13.801Z,3.56
2023-04-08T01:04:46.153Z,3.57
2023-04-08T01:07:16.819Z,3.49
2023-04-08T01:09:47.115Z,3.41
2023-04-08T01:12:19.711Z,3.37
2023-04-08T01:14:48.210Z,3.30
2023-04-08T01:17:16.387Z,3.21
2023-04-08T01:19:44.867Z,3.14
2023-04-08T01:22:18.515Z,3.10
2023-04-08T01:24:46.766Z,3.09
2023-04-08T01:27:16.231Z,3.01
2023-04-08T01:29:44.655Z,2.92
2023-04-08T01:32:13.464Z,2.81
2023-04-08T01:34:41.970Z,2.78
2023-04-08T01:37:09.948Z,2.66
2023-04-08T01:39:38.346Z,2.57
2023-04-08T01:42:06.171Z,2.54
2023-04-08T01:44:36.310Z,2.53
2023-04-08T01:47:04.677Z,2.45
2023-04-08T01:49:32.602Z,2.40
2023-04-08T01:52:01.592Z,2.43
2023-04-08T01:54:29.242Z,2.48
2023-04-08T01:56:58.454Z,2.55
2023-04-08T01:59:31.225Z,2.65
2023-04-08T02:02:00.640Z,2.68
2023-04-08T02:04:28.611Z,2.72
2023-04-08T02:06:57.206Z,2.79
2023-04-08T02:09:26.210Z,2.78
2023-04-08T02:11:53.929Z,2.84
2023-04-08T02:14:23.209Z,2.85
2023-04-08T02:16:54.802Z,2.84
2023-04-08T02:19:27.168Z,2.78
2023-04-08T02:21:58.696Z,2.87
2023-04-08T02:24:27.298Z,2.83
2023-04-08T02:26:56.342Z,2.81
2023-04-08T02:29:25.152Z,2.77
2023-04-08T02:31:53.241Z,2.73
2023-04-08T02:34:22.661Z,2.67
2023-04-08T02:36:52.208Z,2.58
2023-04-08T02:39:22.371Z,2.43
2023-04-08T02:41:50.070Z,2.47
2023-04-08T02:44:17.655Z,2.44
2023-04-08T02:46:45.340Z,2.42
2023-04-08T02:49:13.125Z,2.38
2023-04-08T02:51:41.043Z,2.35
2023-04-08T02:54:09.996Z,2.37
2023-04-08T02:56:37.561Z,2.36
2023-04-08T02:59:05.453Z,2.37
2023-04-08T03:01:33.074Z,2.48
2023-04-08T03:04:00.799Z,2.54
2023-04-08T03:06:28.387Z,2.56
2023-04-08T03:08:55.923Z,2.44
2023-04-08T03:11:24.926Z,2.54
2023-04-08T03:13:52.475Z,2.56
2023-04-08T03:16:20.085Z,2.56
2023-04-08T03:18:47.748Z,2.57
2023-04-08T03:21:15.798Z,2.57
2023-04-08T03:23:43.460Z,2.63
2023-04-08T03:26:11.083Z,2.60
2023-04-08T03:28:40.520Z,2.59
2023-04-08T03:31:08.413Z,2.62
2023-04-08T03:33:36.492Z,2.65
2023-04-08T03:36:04.287Z,2.65
2023-04-08T03:38:32.190Z,2.67
2023-04-08T03:40:59.885Z,2.72
2023-04-08T03:43:27.975Z,2.70
2023-04-08T03:45:57.335Z,2.84
2023-04-08T03:48:25.038Z,2.87
2023-04-08T03:50:52.809Z,2.87
2023-04-08T03:53:20.782Z,2.91
2023-04-08T03:55:50.597Z,2.88
2023-04-08T03:58:19.479Z,2.93
2023-04-08T04:00:47.216Z,2.92
2023-04-08T04:03:16.518Z,2.90
2023-04-08T04:05:44.327Z,2.89
2023-04-08T04:08:12.088Z,2.90
2023-04-08T04:10:39.863Z,2.91
2023-04-08T04:13:07.955Z,2.96
2023-04-08T04:15:39.557Z,3.01
2023-04-08T04:18:07.449Z,3.04
2023-04-08T04:20:38.207Z,3.04
2023-04-08T04:23:05.788Z,3.04
2023-04-08T04:25:33.364Z,3.08
2023-04-08T04:28:01.727Z,3.08
2023-04-08T04:30:29.663Z,3.00
2023-04-08T04:32:57.646Z,3.10
2023-04-08T04:35:25.385Z,3.14
2023-04-08T04:37:54.318Z,3.14
2023-04-08T04:40:21.912Z,3.15
2023-04-08T04:42:49.871Z,3.16
2023-04-08T04:45:17.615Z,3.15
2023-04-08T04:47:45.358Z,3.17
2023-04-08T04:50:12.983Z,3.15
2023-04-08T04:52:41.458Z,3.14
2023-04-08T04:55:11.026Z,3.17
2023-04-08T04:57:38.585Z,3.15
2023-04-08T05:00:08.305Z,3.16
2023-04-08T05:02:36.129Z,3.13
2023-04-08T05:05:04.018Z,3.05
2023-04-08T05:07:31.878Z,2.99
2023-04-08T05:09:59.481Z,2.87
2023-04-08T05:12:29.275Z,2.88
2023-04-08T05:14:56.866Z,2.87
2023-04-08T05:17:24.410Z,2.69
2023-04-08T05:19:52.050Z,2.57
2023-04-08T05:22:19.643Z,2.51
2023-04-08T05:24:47.205Z,2.49
2023-04-08T05:27:14.785Z,2.41
2023-04-08T05:29:44.276Z,2.44
2023-04-08T05:32:11.876Z,2.41
2023-04-08T05:34:39.544Z,2.29
2023-04-08T05:37:07.151Z,2.06
2023-04-08T05:39:34.744Z,2.15
2023-04-08T05:42:02.379Z,2.14
2023-04-08T05:44:29.942Z,2.12
2023-04-08T05:47:00.293Z,2.11
2023-04-08T05:49:28.214Z,2.12
2023-04-08T05:51:56.090Z,2.09
2023-04-08T05:54:23.666Z,1.96
2023-04-08T05:56:51.314Z,1.96
2023-04-08T05:59:18.916Z,2.00
2023-04-08T06:01:46.560Z,2.04
2023-04-08T06:04:17.597Z,1.98
2023-04-08T06:06:45.753Z,2.03
2023-04-08T06:09:13.508Z,2.12
2023-04-08T06:11:41.233Z,2.20
2023-04-08T06:14:08.870Z,2.24
2023-04-08T06:16:36.474Z,2.00
2023-04-08T06:19:10.218Z,1.98
2023-04-08T06:21:39.193Z,1.89
2023-04-08T06:24:07.266Z,1.88
2023-04-08T06:26:34.866Z,1.97
2023-04-08T06:29:03.253Z,1.85
2023-04-08T06:31:30.854Z,1.90
2023-04-08T06:33:59.271Z,1.79
2023-04-08T06:36:28.290Z,1.98
2023-04-08T06:38:57.221Z,1.87
2023-04-08T06:41:24.760Z,1.85
2023-04-08T06:43:52.315Z,1.86
2023-04-08T06:46:19.943Z,1.84
2023-04-08T06:48:47.485Z,1.95
2023-04-08T06:51:15.141Z,2.09
2023-04-08T06:53:42.701Z,1.92
2023-04-08T06:56:11.600Z,2.04
2023-04-08T06:58:39.329Z,2.12
2023-04-08T07:01:07.111Z,2.16
2023-04-08T07:03:34.759Z,2.23
2023-04-08T07:06:04.630Z,2.28
2023-04-08T07:08:32.262Z,2.35
2023-04-08T07:10:59.906Z,2.36
2023-04-08T07:13:29.420Z,2.46
2023-04-08T07:15:57.090Z,2.45
2023-04-08T07:18:26.197Z,2.56
2023-04-08T07:20:54.607Z,2.64
2023-04-08T07:23:22.793Z,2.58
2023-04-08T07:25:50.368Z,2.58
2023-04-08T07:28:17.986Z,2.63
2023-04-08T07:30:47.070Z,2.67
2023-04-08T07:33:15.812Z,2.78
2023-04-08T07:35:43.470Z,2.89
2023-04-08T07:38:12.015Z,3.02
2023-04-08T07:40:39.647Z,3.10
2023-04-08T07:43:09.072Z,3.35
2023-04-08T07:45:36.628Z,3.32
2023-04-08T07:48:05.957Z,3.18
2023-04-08T07:50:33.598Z,3.30
2023-04-08T07:53:01.164Z,3.19
2023-04-08T07:55:28.734Z,3.26
2023-04-08T07:57:56.437Z,3.80
2023-04-08T08:00:24.413Z,3.71
2023-04-08T08:02:52.332Z,3.89
2023-04-08T08:05:21.715Z,3.69
2023-04-08T08:07:50.467Z,3.39
2023-04-08T08:10:18.087Z,3.33
2023-04-08T08:12:45.703Z,3.42
2023-04-08T08:15:13.553Z,3.39
2023-04-08T08:17:41.352Z,3.40
2023-04-08T08:20:10.643Z,3.65
2023-04-08T08:22:50.838Z,3.92
2023-04-08T08:25:26.084Z,3.83
2023-04-08T08:27:55.376Z,4.10
2023-04-08T08:30:23.027Z,4.23
2023-04-08T08:32:52.083Z,3.96
2023-04-08T08:35:19.719Z,4.00
2023-04-08T08:37:48.990Z,3.94
2023-04-08T08:40:16.720Z,3.89
2023-04-08T08:42:51.433Z,3.93
2023-04-08T08:45:19.507Z,3.78
2023-04-08T08:47:49.703Z,3.72
2023-04-08T08:50:18.675Z,3.87
2023-04-08T08:52:51.370Z,3.72
2023-04-08T08:55:35.051Z,3.73
2023-04-08T08:58:08.665Z,3.76
2023-04-08T09:00:37.697Z,3.72
2023-04-08T09:03:18.943Z,3.70
2023-04-08T09:05:51.429Z,3.87
2023-04-08T09:08:27.618Z,3.93
2023-04-08T09:10:55.295Z,4.09
2023-04-08T09:13:23.495Z,4.18
2023-04-08T09:16:05.083Z,3.90
2023-04-08T09:18:33.231Z,4.03
2023-04-08T09:21:02.211Z,4.11
2023-04-08T09:23:41.745Z,4.27
2023-04-08T09:26:10.782Z,3.90
2023-04-08T09:28:39.136Z,3.95
2023-04-08T09:31:22.464Z,3.99
2023-04-08T09:33:50.551Z,4.02
2023-04-08T09:36:18.414Z,4.24
2023-04-08T09:38:48.137Z,4.27
2023-04-08T09:41:16.716Z,4.26
2023-04-08T09:43:49.408Z,4.31
2023-04-08T09:46:19.237Z,4.40
2023-04-08T09:49:03.778Z,4.52
2023-04-08T09:51:35.150Z,4.86
2023-04-08T09:54:04.952Z,4.98
2023-04-08T09:56:40.823Z,5.25
2023-04-08T09:59:12.253Z,5.54
2023-04-08T10:01:41.407Z,5.40
2023-04-08T10:04:11.202Z,5.42
2023-04-08T10:06:39.535Z,5.58
2023-04-08T10:09:08.789Z,5.61
2023-04-08T10:11:37.167Z,5.36
2023-04-08T10:14:04.817Z,5.44
2023-04-08T10:16:32.609Z,5.34
2023-04-08T10:19:00.233Z,5.24
2023-04-08T10:21:43.318Z,5.31
2023-04-08T10:24:12.578Z,5.24
2023-04-08T10:26:41.877Z,5.12
2023-04-08T10:29:33.828Z,5.20
2023-04-08T10:32:02.852Z,5.35
2023-04-08T10:34:30.918Z,5.27
2023-04-08T10:37:02.011Z,5.31
2023-04-08T10:39:32.380Z,5.33
2023-04-08T10:42:02.655Z,5.23
2023-04-08T10:44:30.241Z,5.04
2023-04-08T10:46:58.074Z,5.21
2023-04-08T10:49:34.167Z,5.32
2023-04-08T10:52:02.242Z,5.39
2023-04-08T10:54:31.151Z,5.42
2023-04-08T10:56:59.852Z,5.23
2023-04-08T10:59:32.151Z,5.28
2023-04-08T11:02:00.470Z,5.30
2023-04-08T11:04:28.391Z,5.27
2023-04-08T11:06:56.072Z,5.16
2023-04-08T11:09:23.653Z,5.20
2023-04-08T11:11:53.646Z,5.37
2023-04-08T11:14:22.457Z,5.44
2023-04-08T11:16:50.295Z,5.54
2023-04-08T11:19:18.059Z,5.28
2023-04-08T11:21:45.633Z,5.36
2023-04-08T11:24:14.526Z,5.17
2023-04-08T11:26:42.720Z,5.22
2023-04-08T11:29:14.267Z,5.29
2023-04-08T11:31:42.757Z,5.35
2023-04-08T11:34:10.755Z,5.48
2023-04-08T11:36:41.624Z,5.43
2023-04-08T11:39:11.568Z,5.36
2023-04-08T11:41:40.374Z,5.16
2023-04-08T11:44:08.303Z,5.30
2023-04-08T11:46:37.705Z,5.39
2023-04-08T11:49:07.675Z,5.42
2023-04-08T11:51:37.840Z,5.43
2023-04-08T11:54:06.537Z,5.33
2023-04-08T11:56:45.793Z,5.32
2023-04-08T11:59:13.364Z,5.38
2023-04-08T12:01:42.244Z,5.28
2023-04-08T12:04:12.743Z,5.27
2023-04-08T12:06:43.434Z,5.30
2023-04-08T12:09:11.122Z,5.32
2023-04-08T12:11:38.648Z,5.37
2023-04-08T12:14:06.203Z,5.33
2023-04-08T12:16:33.863Z,5.34
2023-04-08T12:19:02.795Z,5.23
2023-04-08T12:21:30.473Z,5.26
2023-04-08T12:23:58.033Z,5.17
2023-04-08T12:26:25.640Z,5.13
2023-04-08T12:28:53.231Z,5.16
2023-04-08T12:31:21.630Z,5.18
2023-04-08T12:33:49.414Z,5.25
2023-04-08T12:36:18.464Z,5.16
2023-04-08T12:38:46.034Z,5.13
2023-04-08T12:41:13.728Z,5.16
2023-04-08T12:43:41.616Z,5.26
2023-04-08T12:46:09.178Z,5.38
2023-04-08T12:48:36.768Z,5.45
2023-04-08T12:51:04.358Z,5.44
2023-04-08T12:53:33.277Z,5.38
2023-04-08T12:56:00.920Z,5.39
2023-04-08T12:58:28.483Z,5.50
2023-04-08T13:00:56.128Z,5.53
2023-04-08T13:03:23.959Z,5.66
2023-04-08T13:05:51.845Z,5.94
2023-04-08T13:08:19.372Z,6.16
2023-04-08T13:10:48.457Z,6.45
2023-04-08T13:13:16.006Z,6.64
2023-04-08T13:15:44.092Z,7.05
2023-04-08T13:18:16.529Z,7.43
2023-04-08T13:20:44.111Z,7.95
2023-04-08T13:23:11.902Z,8.55
2023-04-08T13:25:39.497Z,8.56
2023-04-08T13:28:08.711Z,8.18
2023-04-08T13:30:39.010Z,7.99
2023-04-08T13:33:06.783Z,6.98
2023-04-08T13:35:34.403Z,6.74
2023-04-08T13:38:02.023Z,6.30
2023-04-08T13:40:30.128Z,6.08
2023-04-08T13:42:57.909Z,5.97
2023-04-08T13:45:26.991Z,6.05
2023-04-08T13:47:54.587Z,6.18
2023-04-08T13:50:22.231Z,6.42
2023-04-08T13:52:50.039Z,6.78
2023-04-08T13:55:17.964Z,7.03
2023-04-08T13:57:45.545Z,8.63
2023-04-08T14:00:14.375Z,9.23
2023-04-08T14:02:43.338Z,9.59
2023-04-08T14:05:11.073Z,9.49
2023-04-08T14:07:38.669Z,9.43
2023-04-08T14:10:08.584Z,8.81
2023-04-08T14:12:36.185Z,8.30
2023-04-08T14:15:03.815Z,7.87
2023-04-08T14:17:32.001Z,7.82
2023-04-08T14:20:01.153Z,7.81
2023-04-08T14:22:28.769Z,8.01
2023-04-08T14:24:56.306Z,8.07
2023-04-08T14:27:23.867Z,7.63
2023-04-08T14:29:51.440Z,7.40
2023-04-08T14:32:19.024Z,7.71
2023-04-08T14:34:46.552Z,7.42
2023-04-08T14:37:17.739Z,7.37
2023-04-08T14:39:45.982Z,7.45
2023-04-08T14:42:15.820Z,7.74
2023-04-08T14:44:44.140Z,7.99
2023-04-08T14:47:12.206Z,8.36
2023-04-08T14:49:39.767Z,8.89
2023-04-08T14:52:07.422Z,8.60
2023-04-08T14:54:36.411Z,9.21
2023-04-08T14:57:04.046Z,9.73
2023-04-08T14:59:31.631Z,9.90
2023-04-08T15:01:59.362Z,9.58
2023-04-08T15:04:27.053Z,9.68
2023-04-08T15:06:54.613Z,9.44
2023-04-08T15:09:22.527Z,9.19
2023-04-08T15:11:51.408Z,9.32
2023-04-08T15:14:19.145Z,9.20
2023-04-08T15:16:46.738Z,8.97
2023-04-08T15:19:15.037Z,8.28
2023-04-08T15:21:42.614Z,8.24
2023-04-08T15:24:10.398Z,8.20
2023-04-08T15:26:37.945Z,8.25
2023-04-08T15:29:06.923Z,8.22
2023-04-08T15:31:34.969Z,8.33
2023-04-08T15:34:03.726Z,8.20
2023-04-08T15:36:31.540Z,8.18
2023-04-08T15:38:59.111Z,7.88
2023-04-08T15:41:27.142Z,7.82
2023-04-08T15:43:54.992Z,7.90
2023-04-08T15:46:24.227Z,7.99
2023-04-08T15:48:52.334Z,8.32
2023-04-08T15:51:20.550Z,8.34
2023-04-08T15:53:50.380Z,8.24
2023-04-08T15:56:18.361Z,8.13
2023-04-08T15:58:46.669Z,7.47
2023-04-08T16:01:14.397Z,7.37
2023-04-08T16:03:43.679Z,6.94
2023-04-08T16:06:11.533Z,6.40
2023-04-08T16:08:39.267Z,6.22
2023-04-08T16:11:08.209Z,5.98
2023-04-08T16:13:39.076Z,5.80
2023-04-08T16:16:08.769Z,5.66
2023-04-08T16:18:36.723Z,5.63
2023-04-08T16:21:07.207Z,5.58
2023-04-08T16:23:37.518Z,5.50
2023-04-08T16:26:05.704Z,5.55
2023-04-08T16:28:33.805Z,5.60
2023-04-08T16:31:01.900Z,5.56
2023-04-08T16:33:30.830Z,5.65
2023-04-08T16:35:58.770Z,5.64
2023-04-08T16:38:28.319Z,5.70
2023-04-08T16:40:58.559Z,5.78
2023-04-08T16:43:27.286Z,5.78
2023-04-08T16:45:55.067Z,5.79
2023-04-08T16:48:23.175Z,5.83
2023-04-08T16:50:50.864Z,5.85
2023-04-08T16:53:18.608Z,5.80
2023-04-08T16:55:47.608Z,5.73
2023-04-08T16:58:15.180Z,5.68
2023-04-08T17:00:42.909Z,5.69
2023-04-08T17:03:11.182Z,5.73
2023-04-08T17:05:39.341Z,5.79
2023-04-08T17:08:07.332Z,5.78
2023-04-08T17:10:34.927Z,5.79
2023-04-08T17:13:05.278Z,5.72
2023-04-08T17:15:33.137Z,5.56
2023-04-08T17:18:01.097Z,5.46
2023-04-08T17:20:29.047Z,5.46
2023-04-08T17:22:56.998Z,5.40
2023-04-08T17:25:24.975Z,5.32
2023-04-08T17:27:52.913Z,5.28
2023-04-08T17:30:22.134Z,5.19
2023-04-08T17:32:50.182Z,5.18
2023-04-08T17:35:18.281Z,5.12
2023-04-08T17:37:45.828Z,5.13
2023-04-08T17:40:13.629Z,5.10
2023-04-08T17:42:41.246Z,5.07
2023-04-08T17:45:10.698Z,5.05
2023-04-08T17:47:39.793Z,5.07
2023-04-08T17:50:11.568Z,5.06
2023-04-08T17:52:39.600Z,5.05
2023-04-08T17:55:08.643Z,5.01
2023-04-08T17:57:36.206Z,5.02
2023-04-08T18:00:03.926Z,5.00
2023-04-08T18:02:31.872Z,4.99
2023-04-08T18:05:01.856Z,4.95
2023-04-08T18:07:29.383Z,4.95
2023-04-08T18:09:57.369Z,4.86
2023-04-08T18:12:26.166Z,4.84
2023-04-08T18:14:53.757Z,4.87
2023-04-08T18:17:21.321Z,4.82
2023-04-08T18:19:48.964Z,4.81
2023-04-08T18:22:17.901Z,4.78
2023-04-08T18:24:45.528Z,4.76
2023-04-08T18:27:13.655Z,4.75
2023-04-08T18:29:41.194Z,4.75
2023-04-08T18:32:08.746Z,4.71
2023-04-08T18:34:36.292Z,4.61
2023-04-08T18:37:04.196Z,4.55
2023-04-08T18:39:33.385Z,4.56
2023-04-08T18:42:01.189Z,4.53
2023-04-08T18:44:28.917Z,4.46
2023-04-08T18:46:57.442Z,4.32
2023-04-08T18:49:25.186Z,4.39
2023-04-08T18:52:02.001Z,4.40
2023-04-08T18:54:30.826Z,4.43
2023-04-08T18:56:59.853Z,4.38
2023-04-08T18:59:28.851Z,4.39
2023-04-08T19:01:56.825Z,4.33
2023-04-08T19:04:24.652Z,4.30
2023-04-08T19:06:53.015Z,4.26
2023-04-08T19:09:20.679Z,4.27
2023-04-08T19:11:49.785Z,4.22
2023-04-08T19:14:18.868Z,4.19
2023-04-08T19:16:46.624Z,4.17
2023-04-08T19:19:14.190Z,4.16
2023-04-08T19:21:41.832Z,4.13
2023-04-08T19:24:09.429Z,4.14
2023-04-08T19:26:37.192Z,4.16
2023-04-08T19:29:04.943Z,4.12
2023-04-08T19:31:34.065Z,4.14
2023-04-08T19:34:01.786Z,4.10
2023-04-08T19:36:29.444Z,4.09
2023-04-08T19:38:57.137Z,4.09
2023-04-08T19:41:24.817Z,4.08
2023-04-08T19:43:53.489Z,4.12
2023-04-08T19:46:21.326Z,4.10
2023-04-08T19:48:50.309Z,3.96
2023-04-08T19:51:22.305Z,3.99
2023-04-08T19:53:53.850Z,3.76
2023-04-08T19:56:21.529Z,3.68
2023-04-08T19:58:49.432Z,3.67
2023-04-08T20:01:17.572Z,3.67
2023-04-08T20:03:49.882Z,3.73
2023-04-08T20:06:19.736Z,3.71
2023-04-08T20:08:47.402Z,3.64
2023-04-08T20:11:14.944Z,3.48
2023-04-08T20:13:42.515Z,3.39
2023-04-08T20:16:10.175Z,3.19
2023-04-08T20:18:37.811Z,3.17
2023-04-08T20:21:07.113Z,3.11
2023-04-08T20:23:36.276Z,3.05
2023-04-08T20:26:03.847Z,3.02
2023-04-08T20:28:31.409Z,2.95
2023-04-08T20:30:59.043Z,2.87
2023-04-08T20:33:27.036Z,2.81
2023-04-08T20:35:54.748Z,2.72
2023-04-08T20:38:23.106Z,2.80
2023-04-08T20:40:51.996Z,2.79
2023-04-08T20:43:20.127Z,2.76
2023-04-08T20:45:48.284Z,2.70
2023-04-08T20:48:16.510Z,2.70
2023-04-08T20:50:44.993Z,2.68
2023-04-08T20:53:12.852Z,2.70
2023-04-08T20:55:43.751Z,2.67
